Orlando, Florida
Traffic Map
Current Weather Conditions
Orlando, Florida
Clear
Clear
77°
Feels Like: 78°
Wind Chill: 77° Ceiling: Unl
Heat Index: 78° Visibility: 10mi
Dew Point: 72° Wind: 0mph
Humidity: 84% Direction: ° ()
Pressure: 30.08in Gusts: 0mph
Raw Report DataKORL 020753Z AUTO 00000KT 10SM CLR 25/22 A3008 RMK AO2 SLP188 T02500222
Traffic Incident Summary
Active as of:
Severity:
Category:
InformationThere was an issue retrieving the traffic information for this location. Please try a different location or try again shortly.
Advertisements
Track Severe Weather on mobile